Time;durP1;ratioP1;P1;durP2;ratioP2;P2;SDS_P1;SDS_P2;PMS_P1;PMS_P2;Temp;Humidity;BMP_temperature;BMP_pressure;BME280_temperature;BME280_humidity;BME280_pressure;Samples;Min_cycle;Max_cycle;Signal;HPM_P1;HPM_P2
2024/03/14 00:02:06;;;;;;;;;;;22.10;51.80;;;;;;5080719;28;20043;-65
2024/03/14 00:04:32;;;;;;;;;;;22.10;51.80;;;;;;5081956;28;19922;-65
2024/03/14 00:06:58;;;;;;;;;;;22.00;51.80;;;;;;5082472;28;19923;-65
2024/03/14 00:09:25;;;;;;;;;;;22.00;51.80;;;;;;5079624;28;20345;-65
2024/03/14 00:11:50;;;;;;;;;;;22.00;51.80;;;;;;5082318;28;19908;-65
2024/03/14 00:14:16;;;;;;;;;;;22.00;51.80;;;;;;5083435;28;20360;-62
2024/03/14 00:16:41;;;;;;;;;;;22.00;51.80;;;;;;5082033;28;19931;-63
2024/03/14 00:19:06;;;;;;;;;;;22.00;51.80;;;;;;5082241;28;19999;-62
2024/03/14 00:21:32;;;;;;;;;;;21.90;51.80;;;;;;5082727;28;19908;-62
2024/03/14 00:23:57;;;;;;;;;;;22.00;51.90;;;;;;5080585;28;19908;-62
2024/03/14 00:26:23;;;;;;;;;;;21.90;51.80;;;;;;5082179;28;19916;-62
2024/03/14 00:28:48;;;;;;;;;;;21.90;51.80;;;;;;5082382;28;20331;-63
2024/03/14 00:31:14;;;;;;;;;;;21.90;51.80;;;;;;5081925;28;19939;-63
2024/03/14 00:33:40;;;;;;;;;;;21.90;51.90;;;;;;5080442;28;19911;-63
2024/03/14 00:36:10;;;;;;;;;;;21.90;51.90;;;;;;5082431;28;20284;-62
2024/03/14 00:38:36;;;;;;;;;;;21.90;51.90;;;;;;5079612;28;20022;-62
2024/03/14 00:41:03;;;;;;;;;;;21.90;51.90;;;;;;5081193;28;19930;-62
2024/03/14 00:43:29;;;;;;;;;;;21.90;51.90;;;;;;5079502;28;20205;-62
2024/03/14 00:45:54;;;;;;;;;;;21.90;51.90;;;;;;5081669;28;20002;-63
2024/03/14 00:48:21;;;;;;;;;;;21.90;51.90;;;;;;5082717;28;20295;-63
2024/03/14 00:50:47;;;;;;;;;;;21.80;51.90;;;;;;5082087;28;20364;-62
2024/03/14 00:53:13;;;;;;;;;;;21.80;51.90;;;;;;5078563;28;19919;-62
2024/03/14 00:55:38;;;;;;;;;;;21.80;51.90;;;;;;5080344;28;19908;-62
2024/03/14 00:58:04;;;;;;;;;;;21.80;51.90;;;;;;5080389;28;20304;-64
2024/03/14 01:00:30;;;;;;;;;;;21.80;52.00;;;;;;5080554;28;19943;-62
2024/03/14 01:02:55;;;;;;;;;;;21.80;51.90;;;;;;5081749;28;20022;-62
2024/03/14 01:05:21;;;;;;;;;;;21.80;52.00;;;;;;5079256;28;19904;-62
2024/03/14 01:07:47;;;;;;;;;;;21.80;52.00;;;;;;5080422;28;19909;-63
2024/03/14 01:10:14;;;;;;;;;;;21.80;52.00;;;;;;5079073;28;19978;-63
2024/03/14 01:12:39;;;;;;;;;;;21.80;52.00;;;;;;5080286;28;19916;-62
2024/03/14 01:15:08;;;;;;;;;;;21.80;52.00;;;;;;5081604;28;19904;-62
2024/03/14 01:17:34;;;;;;;;;;;21.80;52.00;;;;;;5080549;28;19910;-62
2024/03/14 01:20:02;;;;;;;;;;;21.70;51.90;;;;;;5081822;28;19998;-63
2024/03/14 01:22:29;;;;;;;;;;;21.70;51.90;;;;;;5081659;28;19916;-64
2024/03/14 01:24:54;;;;;;;;;;;21.70;51.90;;;;;;5077966;28;20241;-64
2024/03/14 01:27:20;;;;;;;;;;;21.70;52.00;;;;;;5081199;28;19905;-65
2024/03/14 01:29:45;;;;;;;;;;;21.70;52.00;;;;;;5080068;28;19912;-65
2024/03/14 01:32:11;;;;;;;;;;;21.70;52.00;;;;;;5080052;28;19908;-64
2024/03/14 01:34:37;;;;;;;;;;;21.70;52.00;;;;;;5079871;28;20058;-64
2024/03/14 01:37:06;;;;;;;;;;;21.70;52.00;;;;;;5079454;28;20391;-64
2024/03/14 01:39:32;;;;;;;;;;;21.70;52.00;;;;;;5079515;28;20245;-64
2024/03/14 01:41:57;;;;;;;;;;;21.70;52.00;;;;;;5077920;28;20383;-64
2024/03/14 01:44:23;;;;;;;;;;;21.70;52.00;;;;;;5081177;28;19908;-64
2024/03/14 01:46:49;;;;;;;;;;;21.70;52.00;;;;;;5081300;28;19909;-64
2024/03/14 01:49:15;;;;;;;;;;;21.70;52.10;;;;;;5079049;28;19908;-64
2024/03/14 01:51:40;;;;;;;;;;;21.70;52.10;;;;;;5082104;28;19904;-64
2024/03/14 01:54:06;;;;;;;;;;;21.60;52.00;;;;;;5078533;28;19970;-64
2024/03/14 01:56:32;;;;;;;;;;;21.60;52.00;;;;;;5085013;28;20022;-64
2024/03/14 01:58:57;;;;;;;;;;;21.60;52.00;;;;;;5083220;28;20352;-64
2024/03/14 02:01:26;;;;;;;;;;;21.60;52.10;;;;;;5062535;28;20002;-64
2024/03/14 02:03:56;;;;;;;;;;;21.60;52.00;;;;;;5080123;28;19922;-63
2024/03/14 02:06:25;;;;;;;;;;;21.60;52.10;;;;;;5060506;28;20406;-64
2024/03/14 02:08:51;;;;;;;;;;;21.60;52.10;;;;;;5060890;28;20005;-63
2024/03/14 02:11:18;;;;;;;;;;;21.60;52.10;;;;;;5079546;28;19958;-63
2024/03/14 02:13:44;;;;;;;;;;;21.60;52.10;;;;;;5078986;28;19908;-62
2024/03/14 02:16:10;;;;;;;;;;;21.60;52.10;;;;;;5077592;28;20372;-62
2024/03/14 02:18:35;;;;;;;;;;;21.60;52.10;;;;;;5080949;28;19919;-62
2024/03/14 02:21:01;;;;;;;;;;;21.60;52.10;;;;;;5080495;28;19915;-62
2024/03/14 02:23:27;;;;;;;;;;;21.60;52.10;;;;;;5076921;28;19931;-62
2024/03/14 02:25:54;;;;;;;;;;;21.60;52.10;;;;;;5079217;28;20249;-62
2024/03/14 02:28:19;;;;;;;;;;;21.50;52.60;;;;;;5078128;28;19915;-62
2024/03/14 02:30:45;;;;;;;;;;;21.50;52.10;;;;;;5079033;28;19908;-62
2024/03/14 02:33:11;;;;;;;;;;;21.50;52.10;;;;;;5081135;28;19950;-64
2024/03/14 02:35:39;;;;;;;;;;;21.50;52.10;;;;;;5079261;28;19955;-64
2024/03/14 02:38:05;;;;;;;;;;;21.50;52.10;;;;;;5060711;28;20288;-64
2024/03/14 02:40:30;;;;;;;;;;;21.50;52.10;;;;;;5078188;28;19908;-64
2024/03/14 02:42:56;;;;;;;;;;;21.50;52.10;;;;;;5081803;28;20003;-64
2024/03/14 02:45:21;;;;;;;;;;;21.50;52.10;;;;;;5080804;28;20272;-64
2024/03/14 02:47:47;;;;;;;;;;;21.50;52.10;;;;;;5078909;28;19915;-64
2024/03/14 02:50:13;;;;;;;;;;;21.50;52.10;;;;;;5079765;28;19995;-64
2024/03/14 02:52:38;;;;;;;;;;;21.50;52.10;;;;;;5079789;28;20420;-64
2024/03/14 02:55:07;;;;;;;;;;;21.50;52.10;;;;;;5077807;28;19912;-64
2024/03/14 02:57:33;;;;;;;;;;;21.50;52.20;;;;;;5080772;28;20343;-64
2024/03/14 02:59:58;;;;;;;;;;;21.50;52.20;;;;;;5079286;28;19924;-64
2024/03/14 03:02:25;;;;;;;;;;;21.50;52.20;;;;;;5078318;28;19904;-64
2024/03/14 03:04:51;;;;;;;;;;;21.50;52.20;;;;;;5078134;28;19924;-64
2024/03/14 03:07:18;;;;;;;;;;;21.40;52.10;;;;;;5062430;28;20220;-64
2024/03/14 03:09:45;;;;;;;;;;;21.40;52.10;;;;;;5078937;28;19995;-64
2024/03/14 03:12:12;;;;;;;;;;;21.50;52.20;;;;;;5080019;28;19908;-64
2024/03/14 03:14:38;;;;;;;;;;;21.50;52.20;;;;;;5079181;28;19912;-65
2024/03/14 03:17:05;;;;;;;;;;;21.40;52.10;;;;;;5099727;28;20744;-65
2024/03/14 03:19:31;;;;;;;;;;;21.40;52.10;;;;;;5084672;28;19963;-65
2024/03/14 03:21:58;;;;;;;;;;;21.40;52.10;;;;;;5082050;28;20313;-65
2024/03/14 03:24:24;;;;;;;;;;;21.40;52.20;;;;;;5080214;28;20018;-65
2024/03/14 03:26:50;;;;;;;;;;;21.40;52.10;;;;;;5081859;28;20328;-65
2024/03/14 03:29:16;;;;;;;;;;;21.40;52.10;;;;;;5065277;28;19904;-65
2024/03/14 03:31:42;;;;;;;;;;;21.40;52.10;;;;;;5084046;28;20316;-65
2024/03/14 03:34:07;;;;;;;;;;;21.40;52.20;;;;;;5083150;28;19909;-65
2024/03/14 03:36:33;;;;;;;;;;;21.40;52.10;;;;;;5083296;28;19935;-65
2024/03/14 03:39:00;;;;;;;;;;;21.40;52.10;;;;;;5081699;28;19965;-65
2024/03/14 03:41:29;;;;;;;;;;;21.40;52.20;;;;;;5081682;28;19904;-65
2024/03/14 03:43:58;;;;;;;;;;;21.40;52.20;;;;;;5082519;28;19911;-63
2024/03/14 03:46:23;;;;;;;;;;;21.40;52.20;;;;;;5082066;28;19957;-63
2024/03/14 03:48:49;;;;;;;;;;;21.40;52.20;;;;;;5082158;28;20337;-63
2024/03/14 03:51:17;;;;;;;;;;;21.40;52.20;;;;;;5081580;28;20300;-63
2024/03/14 03:53:44;;;;;;;;;;;21.30;52.20;;;;;;5083108;28;19904;-63
2024/03/14 03:56:11;;;;;;;;;;;21.40;52.20;;;;;;5081000;28;19933;-63
2024/03/14 03:58:36;;;;;;;;;;;21.30;52.20;;;;;;5097251;28;19912;-63
2024/03/14 04:01:19;;;;;;;;;;;21.30;52.20;;;;;;5084995;28;19908;-63
2024/03/14 04:03:45;;;;;;;;;;;21.30;52.20;;;;;;5082054;28;19903;-63
2024/03/14 04:06:15;;;;;;;;;;;21.30;52.20;;;;;;5081654;28;20406;-63
2024/03/14 04:08:41;;;;;;;;;;;21.30;52.20;;;;;;5080536;28;19903;-63
2024/03/14 04:11:09;;;;;;;;;;;21.30;52.20;;;;;;5080809;28;19920;-64
2024/03/14 04:13:35;;;;;;;;;;;21.30;52.20;;;;;;5077929;28;20306;-63
2024/03/14 04:16:03;;;;;;;;;;;21.30;52.20;;;;;;5082111;28;19908;-63
2024/03/14 04:18:29;;;;;;;;;;;21.30;52.20;;;;;;5082363;28;19916;-63
2024/03/14 04:20:56;;;;;;;;;;;21.30;52.20;;;;;;5081069;28;19927;-63
2024/03/14 04:23:24;;;;;;;;;;;21.30;52.20;;;;;;5079549;28;19908;-63
2024/03/14 04:25:50;;;;;;;;;;;21.30;52.20;;;;;;5080012;28;20383;-63
2024/03/14 04:28:18;;;;;;;;;;;21.30;52.30;;;;;;5082234;28;20356;-63
2024/03/14 04:30:46;;;;;;;;;;;21.30;52.20;;;;;;5080516;28;20002;-63
2024/03/14 04:33:12;;;;;;;;;;;21.30;52.30;;;;;;5082653;28;19970;-63
2024/03/14 04:35:38;;;;;;;;;;;21.30;52.20;;;;;;5098986;28;20394;-63
2024/03/14 04:38:04;;;;;;;;;;;21.30;52.30;;;;;;5082842;28;19912;-64
2024/03/14 04:40:29;;;;;;;;;;;21.30;52.30;;;;;;5077920;28;19908;-63
2024/03/14 04:42:57;;;;;;;;;;;21.20;52.20;;;;;;5080119;28;19904;-63
2024/03/14 04:45:24;;;;;;;;;;;21.30;52.30;;;;;;5080733;28;19904;-63
2024/03/14 04:47:50;;;;;;;;;;;21.20;52.20;;;;;;5079454;28;19908;-63
2024/03/14 04:50:18;;;;;;;;;;;21.20;52.20;;;;;;5078783;28;20240;-64
2024/03/14 04:52:44;;;;;;;;;;;21.20;52.20;;;;;;5081942;28;19912;-64
2024/03/14 04:55:10;;;;;;;;;;;21.20;52.30;;;;;;5082191;28;19908;-62
2024/03/14 04:57:43;;;;;;;;;;;21.20;52.30;;;;;;5082186;28;19911;-61
2024/03/14 05:00:20;;;;;;;;;;;21.20;52.30;;;;;;5081686;28;19912;-61
2024/03/14 05:02:49;;;;;;;;;;;21.20;52.30;;;;;;5080212;28;20279;-61
2024/03/14 05:05:17;;;;;;;;;;;21.20;52.30;;;;;;5079670;28;19908;-62
2024/03/14 05:07:44;;;;;;;;;;;21.20;52.40;;;;;;5082819;28;19924;-61
2024/03/14 05:10:10;;;;;;;;;;;21.20;52.40;;;;;;5059781;28;19916;-63
2024/03/14 05:12:35;;;;;;;;;;;21.20;52.40;;;;;;5080115;28;20405;-63
2024/03/14 05:15:05;;;;;;;;;;;21.20;52.40;;;;;;5080551;28;19943;-62
2024/03/14 05:17:31;;;;;;;;;;;21.20;52.40;;;;;;5080392;28;20370;-63
2024/03/14 05:19:56;;;;;;;;;;;21.20;52.40;;;;;;5079951;28;19956;-62
2024/03/14 05:22:22;;;;;;;;;;;21.20;52.40;;;;;;5079063;28;19958;-62
2024/03/14 05:24:48;;;;;;;;;;;21.20;52.40;;;;;;5080147;28;20468;-62
2024/03/14 05:27:13;;;;;;;;;;;21.20;52.40;;;;;;5079805;28;19908;-62
2024/03/14 05:29:39;;;;;;;;;;;21.20;52.40;;;;;;5078723;28;19904;-63
2024/03/14 05:32:20;;;;;;;;;;;21.20;52.40;;;;;;5080412;28;20062;-63
2024/03/14 05:34:49;;;;;;;;;;;21.20;52.40;;;;;;5079498;28;20410;-63
2024/03/14 05:37:14;;;;;;;;;;;21.20;52.40;;;;;;5078931;28;19904;-61
2024/03/14 05:39:40;;;;;;;;;;;21.20;52.40;;;;;;5079831;28;19969;-61
2024/03/14 05:42:06;;;;;;;;;;;21.20;52.50;;;;;;5078998;28;19915;-62
2024/03/14 05:44:31;;;;;;;;;;;21.20;52.40;;;;;;5078683;28;20315;-64
2024/03/14 05:46:57;;;;;;;;;;;21.10;52.40;;;;;;5081536;28;19904;-64
2024/03/14 05:49:22;;;;;;;;;;;21.10;52.40;;;;;;5093898;28;20256;-64
2024/03/14 05:51:49;;;;;;;;;;;21.10;52.40;;;;;;5079227;28;20058;-64
2024/03/14 05:54:14;;;;;;;;;;;21.10;52.40;;;;;;5079639;28;20345;-64
2024/03/14 05:56:40;;;;;;;;;;;21.10;52.40;;;;;;5080747;28;19957;-64
2024/03/14 05:59:05;;;;;;;;;;;21.10;52.40;;;;;;5078980;28;19938;-64
2024/03/14 06:01:31;;;;;;;;;;;21.10;52.50;;;;;;5079204;28;20283;-64
2024/03/14 06:03:57;;;;;;;;;;;21.10;52.50;;;;;;5080473;28;19909;-65
2024/03/14 06:06:22;;;;;;;;;;;21.10;52.50;;;;;;5078458;28;20364;-64
2024/03/14 06:08:48;;;;;;;;;;;21.10;52.50;;;;;;5078894;28;19916;-64
2024/03/14 06:11:14;;;;;;;;;;;21.10;52.50;;;;;;5078313;28;19987;-64
2024/03/14 06:13:40;;;;;;;;;;;21.10;52.50;;;;;;5079408;28;19958;-66
2024/03/14 06:16:07;;;;;;;;;;;21.10;52.40;;;;;;5083110;28;20403;-67
2024/03/14 06:18:33;;;;;;;;;;;21.10;52.40;;;;;;5079453;28;20304;-66
2024/03/14 06:20:59;;;;;;;;;;;21.10;52.40;;;;;;5078861;28;19919;-66
2024/03/14 06:23:25;;;;;;;;;;;21.10;52.50;;;;;;5080851;28;20003;-67
2024/03/14 06:25:51;;;;;;;;;;;21.10;52.50;;;;;;5078992;28;19908;-67
2024/03/14 06:28:16;;;;;;;;;;;21.10;52.50;;;;;;5076580;28;20408;-66
2024/03/14 06:30:42;;;;;;;;;;;21.10;52.50;;;;;;5078409;28;19908;-66
2024/03/14 06:33:07;;;;;;;;;;;21.10;52.60;;;;;;5079918;28;20575;-66
2024/03/14 06:35:34;;;;;;;;;;;21.10;52.60;;;;;;5079155;28;19908;-66
2024/03/14 06:37:59;;;;;;;;;;;21.10;52.60;;;;;;5081164;28;19927;-66
2024/03/14 06:40:25;;;;;;;;;;;21.10;52.60;;;;;;5061533;28;19904;-66
2024/03/14 06:42:50;;;;;;;;;;;21.10;52.60;;;;;;5079362;28;19995;-66
2024/03/14 06:45:16;;;;;;;;;;;21.10;52.60;;;;;;5080649;28;20436;-67
2024/03/14 06:47:45;;;;;;;;;;;21.10;52.60;;;;;;5080024;28;20939;-66
2024/03/14 06:50:12;;;;;;;;;;;21.10;52.60;;;;;;5078882;28;19912;-66
2024/03/14 06:52:38;;;;;;;;;;;21.10;52.60;;;;;;5077788;28;19952;-66
2024/03/14 06:55:04;;;;;;;;;;;21.10;52.60;;;;;;5077996;28;19919;-64
2024/03/14 06:57:29;;;;;;;;;;;21.10;52.60;;;;;;5076759;28;19904;-62
2024/03/14 06:59:55;;;;;;;;;;;21.10;52.60;;;;;;5079512;28;20035;-63
2024/03/14 07:02:21;;;;;;;;;;;21.10;52.60;;;;;;5077682;28;19942;-62
2024/03/14 07:04:48;;;;;;;;;;;21.10;52.60;;;;;;5076444;28;19915;-67
2024/03/14 07:07:15;;;;;;;;;;;21.00;52.60;;;;;;5079076;28;20273;-67
2024/03/14 07:09:41;;;;;;;;;;;21.00;52.70;;;;;;5061013;28;20386;-66
2024/03/14 07:12:09;;;;;;;;;;;21.10;52.90;;;;;;5073904;28;19912;-67
2024/03/14 07:14:35;;;;;;;;;;;21.10;53.00;;;;;;5080381;28;19995;-65
2024/03/14 07:17:01;;;;;;;;;;;21.10;53.00;;;;;;5078958;28;20062;-64
2024/03/14 07:19:27;;;;;;;;;;;21.10;53.00;;;;;;5080812;28;19927;-64
2024/03/14 07:21:56;;;;;;;;;;;21.10;53.00;;;;;;5078139;28;19920;-65
2024/03/14 07:24:23;;;;;;;;;;;21.20;53.00;;;;;;5079110;28;19956;-64
2024/03/14 07:26:48;;;;;;;;;;;21.20;53.00;;;;;;5076131;28;19909;-64
2024/03/14 07:29:14;;;;;;;;;;;21.20;53.00;;;;;;5078945;28;19915;-65
2024/03/14 07:31:43;;;;;;;;;;;21.20;53.00;;;;;;5077278;28;19995;-65
2024/03/14 07:34:10;;;;;;;;;;;21.20;53.00;;;;;;5093873;28;19912;-65
2024/03/14 07:36:38;;;;;;;;;;;21.20;53.00;;;;;;5077776;28;20451;-65
2024/03/14 07:39:04;;;;;;;;;;;21.30;53.00;;;;;;5077024;28;19908;-65
2024/03/14 07:41:30;;;;;;;;;;;21.30;52.90;;;;;;5074829;28;19914;-65
2024/03/14 07:43:55;;;;;;;;;;;21.30;52.90;;;;;;5078302;28;19904;-65
2024/03/14 07:46:22;;;;;;;;;;;21.30;52.90;;;;;;5077610;28;19911;-65
2024/03/14 07:48:49;;;;;;;;;;;21.30;52.90;;;;;;5079893;28;19917;-65
2024/03/14 07:51:15;;;;;;;;;;;21.30;52.90;;;;;;5077454;28;20340;-64
2024/03/14 07:53:40;;;;;;;;;;;21.40;52.90;;;;;;5081401;28;19998;-64
2024/03/14 07:56:09;;;;;;;;;;;21.40;52.90;;;;;;5078192;28;20058;-65
2024/03/14 07:58:38;;;;;;;;;;;21.40;52.80;;;;;;5077896;28;19912;-64
2024/03/14 08:01:10;;;;;;;;;;;21.40;52.80;;;;;;5077951;28;19904;-65
2024/03/14 08:03:39;;;;;;;;;;;21.40;52.80;;;;;;5082070;28;19904;-62
2024/03/14 08:06:07;;;;;;;;;;;21.40;52.70;;;;;;5082070;28;19923;-63
2024/03/14 08:08:33;;;;;;;;;;;21.40;52.70;;;;;;5080551;28;19908;-63
2024/03/14 08:10:59;;;;;;;;;;;21.50;52.80;;;;;;5072938;28;19920;-64
2024/03/14 08:13:26;;;;;;;;;;;21.50;52.70;;;;;;5080451;28;19919;-62
2024/03/14 08:15:54;;;;;;;;;;;21.50;52.70;;;;;;5081982;28;19904;-62
2024/03/14 08:18:23;;;;;;;;;;;21.50;52.70;;;;;;5081396;28;19911;-63
2024/03/14 08:20:50;;;;;;;;;;;21.50;52.90;;;;;;5064651;28;20356;-62
2024/03/14 08:23:15;;;;;;;;;;;21.50;52.70;;;;;;5081892;28;20384;-65
2024/03/14 08:25:43;;;;;;;;;;;21.60;52.80;;;;;;5082534;28;19916;-65
2024/03/14 08:28:09;;;;;;;;;;;21.60;52.70;;;;;;5080707;28;19911;-65
2024/03/14 08:30:39;;;;;;;;;;;21.60;52.70;;;;;;5083476;28;19915;-65
2024/03/14 08:33:06;;;;;;;;;;;21.60;52.70;;;;;;5080400;28;19908;-63
2024/03/14 08:35:33;;;;;;;;;;;21.60;52.60;;;;;;5080028;28;20389;-63
2024/03/14 08:37:58;;;;;;;;;;;21.60;52.50;;;;;;5080674;28;19962;-62
2024/03/14 08:40:24;;;;;;;;;;;21.60;52.50;;;;;;5081097;28;20688;-62
2024/03/14 08:42:49;;;;;;;;;;;21.60;52.50;;;;;;5079718;28;20589;-62
2024/03/14 08:45:16;;;;;;;;;;;21.60;52.50;;;;;;5080741;28;19915;-63
2024/03/14 08:47:42;;;;;;;;;;;21.70;52.50;;;;;;5082978;28;19912;-62
2024/03/14 08:50:09;;;;;;;;;;;21.70;52.50;;;;;;5080577;28;19924;-63
2024/03/14 08:52:37;;;;;;;;;;;21.70;52.50;;;;;;5079672;28;19915;-62
2024/03/14 08:55:23;;;;;;;;;;;21.70;52.40;;;;;;5079525;28;20352;-62
2024/03/14 08:57:51;;;;;;;;;;;21.70;52.40;;;;;;5080640;28;20356;-62
2024/03/14 09:00:17;;;;;;;;;;;21.70;52.40;;;;;;5081203;28;19919;-61
2024/03/14 09:02:43;;;;;;;;;;;21.70;52.40;;;;;;5080568;28;20363;-62
2024/03/14 09:05:11;;;;;;;;;;;21.70;52.30;;;;;;5081834;28;19943;-64
2024/03/14 09:07:40;;;;;;;;;;;21.80;52.40;;;;;;5078464;28;20333;-63
2024/03/14 09:10:15;;;;;;;;;;;21.70;52.30;;;;;;5079683;28;20361;-64
2024/03/14 09:12:45;;;;;;;;;;;21.80;52.40;;;;;;5077592;28;19935;-62
2024/03/14 09:15:14;;;;;;;;;;;21.80;52.40;;;;;;5080724;28;19908;-65
2024/03/14 09:17:40;;;;;;;;;;;21.80;52.30;;;;;;5095311;28;19952;-65
2024/03/14 09:20:08;;;;;;;;;;;21.80;52.30;;;;;;5077007;28;19916;-65
2024/03/14 09:22:34;;;;;;;;;;;21.80;52.30;;;;;;5079956;28;20360;-65
2024/03/14 09:25:01;;;;;;;;;;;21.80;52.30;;;;;;5078921;28;19919;-64
2024/03/14 09:27:26;;;;;;;;;;;21.80;52.30;;;;;;5076898;28;19908;-64
2024/03/14 09:29:54;;;;;;;;;;;21.80;52.30;;;;;;5079852;28;20322;-64
2024/03/14 09:32:20;;;;;;;;;;;21.90;52.30;;;;;;5079964;28;20344;-64
2024/03/14 09:34:45;;;;;;;;;;;21.90;52.50;;;;;;5080903;28;19954;-66
2024/03/14 09:37:12;;;;;;;;;;;21.90;52.30;;;;;;5080841;28;19904;-66
2024/03/14 09:39:37;;;;;;;;;;;21.90;52.20;;;;;;5080217;28;19919;-66
2024/03/14 09:42:03;;;;;;;;;;;21.90;52.10;;;;;;5078298;28;19916;-66
2024/03/14 09:44:29;;;;;;;;;;;21.90;52.10;;;;;;5063103;28;19908;-64
2024/03/14 09:46:59;;;;;;;;;;;21.90;52.10;;;;;;5080672;28;19904;-64
2024/03/14 09:49:25;;;;;;;;;;;21.90;52.10;;;;;;5080653;28;19912;-64
2024/03/14 09:51:53;;;;;;;;;;;21.90;52.10;;;;;;5079438;28;20845;-64
2024/03/14 09:54:20;;;;;;;;;;;21.90;52.10;;;;;;5079219;28;19915;-64
2024/03/14 09:56:45;;;;;;;;;;;21.90;52.00;;;;;;5078948;28;19904;-64
2024/03/14 09:59:11;;;;;;;;;;;21.90;52.00;;;;;;5078584;28;19919;-64
2024/03/14 10:01:37;;;;;;;;;;;21.90;52.00;;;;;;5080831;28;19912;-64
2024/03/14 10:04:06;;;;;;;;;;;21.90;51.90;;;;;;5078623;28;19904;-64
2024/03/14 10:06:32;;;;;;;;;;;21.90;52.10;;;;;;5080343;28;19908;-64
2024/03/14 10:08:59;;;;;;;;;;;21.90;52.10;;;;;;5076811;28;20222;-63
2024/03/14 10:11:24;;;;;;;;;;;21.90;52.10;;;;;;5080989;28;20343;-64
2024/03/14 10:13:50;;;;;;;;;;;22.00;52.10;;;;;;5077712;28;19954;-64
2024/03/14 10:16:15;;;;;;;;;;;22.00;52.20;;;;;;5078774;28;19910;-64
2024/03/14 10:18:41;;;;;;;;;;;22.00;52.20;;;;;;5078274;28;19916;-64
2024/03/14 10:21:07;;;;;;;;;;;22.00;52.20;;;;;;5079375;28;19991;-63
2024/03/14 10:23:35;;;;;;;;;;;22.00;52.20;;;;;;5079683;28;19915;-64
2024/03/14 10:26:01;;;;;;;;;;;22.00;52.20;;;;;;5080816;28;20072;-63
2024/03/14 10:28:33;;;;;;;;;;;22.00;52.30;;;;;;5077923;28;19915;-64
2024/03/14 10:31:02;;;;;;;;;;;22.00;52.20;;;;;;5079906;28;20070;-64
2024/03/14 10:33:28;;;;;;;;;;;22.10;52.30;;;;;;5078935;28;19995;-64
2024/03/14 10:35:57;;;;;;;;;;;22.10;52.30;;;;;;5079340;28;19994;-64
2024/03/14 10:38:29;;;;;;;;;;;22.10;52.30;;;;;;5078930;28;20340;-64
2024/03/14 10:40:58;;;;;;;;;;;22.10;52.30;;;;;;5080002;28;20410;-64
2024/03/14 10:43:42;;;;;;;;;;;22.10;52.40;;;;;;5059252;28;19904;-67
2024/03/14 10:46:15;;;;;;;;;;;22.10;52.40;;;;;;5077598;28;20371;-66
2024/03/14 10:48:44;;;;;;;;;;;22.10;52.60;;;;;;5080151;28;19915;-67
2024/03/14 10:51:13;;;;;;;;;;;22.10;52.40;;;;;;5078056;28;20352;-66
2024/03/14 10:53:40;;;;;;;;;;;22.10;52.40;;;;;;5080106;28;19948;-64
2024/03/14 10:56:16;;;;;;;;;;;22.10;52.30;;;;;;5077341;28;20403;-64
2024/03/14 10:58:45;;;;;;;;;;;22.10;52.30;;;;;;5076817;28;19913;-64
2024/03/14 11:01:11;;;;;;;;;;;22.10;52.30;;;;;;5079070;28;19909;-64
2024/03/14 11:03:40;;;;;;;;;;;22.10;52.20;;;;;;5080013;28;19915;-64
2024/03/14 11:06:12;;;;;;;;;;;22.10;52.20;;;;;;5080001;28;19924;-64
2024/03/14 11:08:39;;;;;;;;;;;22.10;52.20;;;;;;5078245;28;19909;-64
2024/03/14 11:11:05;;;;;;;;;;;22.10;52.10;;;;;;5078016;28;19908;-64
2024/03/14 11:13:31;;;;;;;;;;;22.10;52.10;;;;;;5057890;28;19961;-64
2024/03/14 11:15:58;;;;;;;;;;;22.20;52.60;;;;;;5077146;28;20380;-63
2024/03/14 11:18:28;;;;;;;;;;;22.20;52.00;;;;;;5078329;28;19919;-64
2024/03/14 11:20:54;;;;;;;;;;;22.10;51.90;;;;;;5079735;28;19904;-64
2024/03/14 11:23:24;;;;;;;;;;;22.20;51.90;;;;;;5080189;28;20380;-64
2024/03/14 11:25:57;;;;;;;;;;;22.20;51.80;;;;;;5060136;28;20006;-64
2024/03/14 11:28:24;;;;;;;;;;;22.20;51.70;;;;;;5077006;28;19908;-64
2024/03/14 11:30:51;;;;;;;;;;;22.20;51.70;;;;;;5059735;28;19924;-64
2024/03/14 11:33:17;;;;;;;;;;;22.20;51.70;;;;;;5079168;28;19911;-65
2024/03/14 11:35:44;;;;;;;;;;;22.20;51.70;;;;;;5060867;28;19995;-64
2024/03/14 11:38:22;;;;;;;;;;;22.20;51.60;;;;;;5081151;28;19965;-64
2024/03/14 11:40:48;;;;;;;;;;;22.20;51.70;;;;;;5083174;28;19908;-64
2024/03/14 11:43:35;;;;;;;;;;;22.20;51.70;;;;;;5082191;28;19911;-64
2024/03/14 11:46:02;;;;;;;;;;;22.20;51.80;;;;;;5084039;28;19908;-64
2024/03/14 11:48:28;;;;;;;;;;;22.30;52.30;;;;;;5082715;28;20003;-65
2024/03/14 11:51:03;;;;;;;;;;;22.30;51.70;;;;;;5080239;28;19908;-65
2024/03/14 11:53:32;;;;;;;;;;;22.30;51.70;;;;;;5062902;28;20014;-64
2024/03/14 11:55:58;;;;;;;;;;;22.40;51.70;;;;;;5081191;28;19908;-64
2024/03/14 11:58:24;;;;;;;;;;;22.40;51.80;;;;;;5080615;28;19984;-64
2024/03/14 12:00:52;;;;;;;;;;;22.50;51.70;;;;;;5081936;28;19947;-63
2024/03/14 12:03:19;;;;;;;;;;;22.60;51.70;;;;;;5080492;28;20355;-63
2024/03/14 12:05:55;;;;;;;;;;;22.60;51.60;;;;;;5083319;28;19905;-63
2024/03/14 12:08:22;;;;;;;;;;;22.60;51.50;;;;;;5081873;28;19904;-63
2024/03/14 12:10:54;;;;;;;;;;;22.70;51.50;;;;;;5078446;28;19915;-62
2024/03/14 12:13:23;;;;;;;;;;;22.70;51.50;;;;;;5079634;28;20228;-61
2024/03/14 12:15:58;;;;;;;;;;;22.80;51.50;;;;;;5081451;28;19970;-62
2024/03/14 12:18:24;;;;;;;;;;;22.80;51.50;;;;;;5082363;28;19916;-63
2024/03/14 12:20:49;;;;;;;;;;;22.90;51.50;;;;;;5081889;28;19962;-62
2024/03/14 12:23:16;;;;;;;;;;;22.90;51.50;;;;;;5082708;28;20264;-63
2024/03/14 12:25:46;;;;;;;;;;;23.00;51.30;;;;;;5080206;28;20791;-62
2024/03/14 12:28:12;;;;;;;;;;;22.90;51.20;;;;;;5079779;28;19915;-63
2024/03/14 12:30:39;;;;;;;;;;;23.00;51.20;;;;;;5081433;28;19954;-63
2024/03/14 12:33:06;;;;;;;;;;;23.00;51.20;;;;;;5064450;28;19905;-62
2024/03/14 12:35:33;;;;;;;;;;;23.00;51.30;;;;;;5081911;28;19908;-63
2024/03/14 12:38:01;;;;;;;;;;;22.90;51.20;;;;;;5082424;28;20006;-63
2024/03/14 12:40:29;;;;;;;;;;;23.00;51.30;;;;;;5084485;28;19978;-63
2024/03/14 12:42:55;;;;;;;;;;;23.00;51.80;;;;;;5079763;28;20286;-64
2024/03/14 12:45:23;;;;;;;;;;;23.00;51.30;;;;;;5079524;28;19912;-65
2024/03/14 12:47:50;;;;;;;;;;;23.00;51.30;;;;;;5079383;28;20018;-64
2024/03/14 12:50:34;;;;;;;;;;;23.00;51.30;;;;;;5081649;28;19951;-65
2024/03/14 12:53:02;;;;;;;;;;;23.00;51.40;;;;;;5064019;28;20033;-64
2024/03/14 12:55:27;;;;;;;;;;;23.00;51.40;;;;;;5079106;28;19908;-65
2024/03/14 12:57:53;;;;;;;;;;;23.00;51.50;;;;;;5080490;28;19982;-64
2024/03/14 13:00:19;;;;;;;;;;;23.00;51.60;;;;;;5075101;28;20530;-64
2024/03/14 13:02:49;;;;;;;;;;;23.00;51.70;;;;;;5063279;28;19908;-64
2024/03/14 13:05:19;;;;;;;;;;;23.00;51.70;;;;;;5082590;28;19908;-66
2024/03/14 13:08:06;;;;;;;;;;;23.00;51.60;;;;;;5082007;28;20373;-66
2024/03/14 13:10:35;;;;;;;;;;;23.00;51.50;;;;;;5079242;28;19908;-66
2024/03/14 13:13:04;;;;;;;;;;;23.00;51.50;;;;;;5083266;28;19908;-67
2024/03/14 13:15:31;;;;;;;;;;;23.00;51.50;;;;;;5078147;28;19954;-67
2024/03/14 13:17:56;;;;;;;;;;;23.10;51.50;;;;;;5081544;28;19978;-67
2024/03/14 13:20:29;;;;;;;;;;;23.00;52.00;;;;;;5080917;28;19917;-66
2024/03/14 13:22:55;;;;;;;;;;;23.00;51.40;;;;;;5080223;28;19908;-67
2024/03/14 13:25:24;;;;;;;;;;;23.00;51.40;;;;;;5094363;28;19962;-66
2024/03/14 13:27:50;;;;;;;;;;;23.10;51.50;;;;;;5076775;28;19949;-66
2024/03/14 13:30:19;;;;;;;;;;;23.10;51.50;;;;;;5078147;28;19978;-66
2024/03/14 13:32:45;;;;;;;;;;;23.10;51.40;;;;;;5080042;28;19909;-65
2024/03/14 13:35:13;;;;;;;;;;;23.10;51.40;;;;;;5079899;28;19999;-66
2024/03/14 13:37:42;;;;;;;;;;;23.10;51.40;;;;;;5078797;28;19931;-66
2024/03/14 13:40:11;;;;;;;;;;;23.10;51.40;;;;;;5080898;28;20269;-66
2024/03/14 13:42:38;;;;;;;;;;;23.10;51.40;;;;;;5080999;28;19943;-67
2024/03/14 13:45:05;;;;;;;;;;;23.10;51.40;;;;;;5059876;28;19908;-66
2024/03/14 13:47:32;;;;;;;;;;;23.10;51.40;;;;;;5080123;28;19904;-65
2024/03/14 13:49:58;;;;;;;;;;;23.10;51.50;;;;;;5080931;28;20311;-66
2024/03/14 13:52:24;;;;;;;;;;;23.20;51.40;;;;;;5079497;28;19904;-66
2024/03/14 13:54:50;;;;;;;;;;;23.10;51.30;;;;;;5080148;28;20015;-63
2024/03/14 13:57:16;;;;;;;;;;;23.10;51.30;;;;;;5080466;28;20352;-63
2024/03/14 13:59:46;;;;;;;;;;;23.20;51.30;;;;;;5077121;28;19918;-63
2024/03/14 14:02:17;;;;;;;;;;;23.20;51.30;;;;;;5063290;28;20365;-64
2024/03/14 14:04:43;;;;;;;;;;;23.20;51.30;;;;;;5080044;28;20300;-64
2024/03/14 14:07:09;;;;;;;;;;;23.20;51.30;;;;;;5079880;28;20376;-64
2024/03/14 14:09:36;;;;;;;;;;;23.20;51.30;;;;;;5079831;28;19958;-64
2024/03/14 14:12:04;;;;;;;;;;;23.20;51.20;;;;;;5078859;28;19908;-64
2024/03/14 14:14:31;;;;;;;;;;;23.20;51.30;;;;;;5079349;28;20461;-63
2024/03/14 14:16:58;;;;;;;;;;;23.20;51.20;;;;;;5080964;28;19964;-63